To NAV CANADA Home Page Login to a new session Search on AWWS site Feedback and Comments Disclaimer Vers la page française équivalente Tips FAQ What's new on the site To the Forecasts and Observations / NOTAM section To "File a Flight Plan" website Publications and other links Update of the User's profile FIC Telephone Numbers My Weather Data Folder Route Weather Data Regional Weather Data Local Weather Data To the Forecasts and Observations / NOTAM section
Request Generated 03/04/2015 at 12:44:33 UTC . Weather information available at that time is displayed.

METAR/TAF

KUUJJUAQ/QC    

METAR CYVP 041200Z 02002KT 15SM FEW090 BKN220 M36/M40 A2952 RMK
AC2CI4 SLP004=
METAR CYVP 041100Z 36004KT 15SM FEW140 BKN200 M37/M41 A2955 RMK
AS1CI4 SLP013=
METAR CYVP 041000Z 36004KT 15SM FEW140 SCT200 M37/M41 A2957 RMK
AC1CS2 FROIN SLP019=

TAF CYVP 041138Z 0412/0424 VRB03KT P6SM SKC
FM041500 05010KT P6SM -SN BKN040
FM042100 04015KT 3SM -SN OVC025
RMK NXT FCST BY 041800Z=
Your time UTC time
Weather data provided by Environment Canada and NAV CANADA